Costa Atlantica — IBLQ — position and weather

sailwx.info

Track history (hours):
 
Tides and Currents Weather Stations Pressure Air Temp Water Temp Dewpoint Dewpoint Depression Visibility Wind Speed Wind Dir Waves Ship Positions

Costa Atlantica (Italy)

Last reported at 2020-Apr-02 02:01 UTC. Time now 2020-Apr-02 04:04 UTC.
Position N 32°42' E 129°50'.

Length 292 m; draft 8 m.

Type: Ship. MMSI: 247595017.

Date/timePositionNaut miles runAvg speedWind from/ knotsBaromVisibWave heightAir tempDewpointWater temp
2020-Apr-02 02:01N 32°42' E 129°50'0 0.0
2020-Apr-01 22:16N 32°42' E 129°50'0 0.0
2020-Apr-01 20:46N 32°42' E 129°50'0 0.0
2020-Apr-01 18:30N 32°42' E 129°50'0 0.0
2020-Apr-01 17:46N 32°42' E 129°50'0 0.0
2020-Apr-01 17:00N 32°42' E 129°50'0 0.0
2020-Apr-01 16:16N 32°42' E 129°50'0 0.0
2020-Apr-01 10:16N 32°42' E 129°50'0 0.0
2020-Apr-01 07:16N 32°42' E 129°50'73 7.7
2020-Mar-31 21:46N 31°39' E 129°05'1212.2
2020-Mar-31 20:46N 31°29' E 128°59'17 5.5
2020-Mar-31 17:45N 31°12' E 128°54'8 4.0
2020-Mar-31 15:46N 31°05' E 128°56'4610.2
2020-Mar-31 11:16N 31°49' E 129°11'714.2
2020-Mar-31 10:46N 31°56' E 129°12'1413.7
2020-Mar-31 09:46N 32°09' E 129°17'714.1
2020-Mar-31 09:16N 32°15' E 129°20'1313.5
2020-Mar-31 08:17N 32°27' E 129°27'1413.9
2020-Mar-31 07:16N 32°39' E 129°35'11 3.6
2020-Mar-31 04:16N 32°42' E 129°48'0 0.0
2020-Mar-30 21:16N 32°42' E 129°48'0 0.1
2020-Mar-30 20:31N 32°42' E 129°48'0 0.0
2020-Mar-30 16:01N 32°42' E 129°48'0 0.0
2020-Mar-30 13:46N 32°42' E 129°48'0 0.0
2020-Mar-30 11:31N 32°42' E 129°48'0 0.0
2020-Mar-30 10:01N 32°42' E 129°48'0 0.0
2020-Mar-30 08:31N 32°42' E 129°48'0 0.0
2020-Mar-30 07:32N 32°42' E 129°48'0 0.0
2020-Mar-30 05:17N 32°42' E 129°48'0 0.0
2020-Mar-30 01:32N 32°42' E 129°48'0 0.0
2020-Mar-30 01:02N 32°42' E 129°48'0 0.0
2020-Mar-29 22:01N 32°42' E 129°48'0 0.1
2020-Mar-29 21:16N 32°42' E 129°48'0 0.0
2020-Mar-29 18:46N 32°42' E 129°48'0 0.0
2020-Mar-29 17:16N 32°42' E 129°48'0 0.0
2020-Mar-29 14:17N 32°42' E 129°48'0 0.0
2020-Mar-29 12:47N 32°42' E 129°48'0 0.1
2020-Mar-29 12:02N 32°42' E 129°48'0 0.0
2020-Mar-29 11:17N 32°42' E 129°48'0 0.0
2020-Mar-29 08:47N 32°42' E 129°48'0 0.0
2020-Mar-29 02:01N 32°42' E 129°48'0 0.0
2020-Mar-28 23:46N 32°42' E 129°48'0 0.1
2020-Mar-28 23:02N 32°42' E 129°48'0 0.0
2020-Mar-28 20:46N 32°42' E 129°48'0 0.0
2020-Mar-28 19:01N 32°42' E 129°48'0 0.0
2020-Mar-28 15:17N 32°42' E 129°48'0 0.0
2020-Mar-28 12:02N 32°42' E 129°48'0 0.1
2020-Mar-28 11:17N 32°42' E 129°48'0 0.0
2020-Mar-28 08:16N 32°42' E 129°48'0 0.0
2020-Mar-28 06:01N 32°42' E 129°48'0 0.0
2020-Mar-28 02:16N 32°42' E 129°48'0 0.1
2020-Mar-28 01:31N 32°42' E 129°48'0 0.1
2020-Mar-28 00:46N 32°42' E 129°48'0 0.0
2020-Mar-27 16:46N 32°42' E 129°48'0 0.0
2020-Mar-27 16:01N 32°42' E 129°48'0 0.0
2020-Mar-27 14:31N 32°42' E 129°48'0 0.0
2020-Mar-27 13:02N 32°42' E 129°48'0 0.1
2020-Mar-27 12:16N 32°42' E 129°48'0 0.1
2020-Mar-27 11:32N 32°42' E 129°48'0 0.0
2020-Mar-27 09:47N 32°42' E 129°48'4 1.0
2020-Mar-27 05:32N 32°44' E 129°52'0 0.0
2020-Mar-27 03:16N 32°44' E 129°52'0 0.0
2020-Mar-26 20:46N 32°44' E 129°52'0 0.0
2020-Mar-26 17:46N 32°44' E 129°52'0 0.0
2020-Mar-26 17:01N 32°44' E 129°52'0 0.0
2020-Mar-26 14:31N 32°44' E 129°52'0 0.0
2020-Mar-26 13:01N 32°44' E 129°52'0 0.0
2020-Mar-26 10:47N 32°44' E 129°52'0 0.0
2020-Mar-26 09:16N 32°44' E 129°52'0 0.0
2020-Mar-26 07:47N 32°44' E 129°52'0 0.0
2020-Mar-26 07:02N 32°44' E 129°52'0 0.0
2020-Mar-26 06:16N 32°44' E 129°52'0 0.0
2020-Mar-26 05:32N 32°44' E 129°52'0 0.0
2020-Mar-26 04:02N 32°44' E 129°52'0 0.0
2020-Mar-26 03:02N 32°44' E 129°52'7 1.7
2020-Mar-25 22:46N 32°44' E 129°43'3613.2
2020-Mar-25 20:01N 32°14' E 129°18'8312.0
2020-Mar-25 13:03N 30°59' E 128°35'51 9.8
2020-Mar-25 07:48N 31°40' E 129°12'3413.6
2020-Mar-25 05:18N 32°13' E 129°19'39 9.7
2020-Mar-25 01:18N 32°42' E 129°49'0 0.0
2020-Mar-25 00:33N 32°42' E 129°49'0 0.0
2020-Mar-24 19:17N 32°42' E 129°49'0 0.1
2020-Mar-24 18:32N 32°42' E 129°49'0 0.0
2020-Mar-24 17:02N 32°42' E 129°49'0 0.0
2020-Mar-24 13:17N 32°42' E 129°49'0 0.0
2020-Mar-24 12:32N 32°42' E 129°49'0 0.0
2020-Mar-24 07:46N 32°42' E 129°49'0 0.0
2020-Mar-24 07:02N 32°42' E 129°49'0 0.0
2020-Mar-24 05:16N 32°42' E 129°49'0 0.0
2020-Mar-23 20:46N 32°42' E 129°49'0 0.0
2020-Mar-23 19:16N 32°42' E 129°49'0 0.0
2020-Mar-23 13:16N 32°42' E 129°49'0 0.0
2020-Mar-23 12:31N 32°42' E 129°49'0 0.0
2020-Mar-23 11:01N 32°42' E 129°49'0 0.0
2020-Mar-23 09:01N 32°42' E 129°49'0 0.0
2020-Mar-23 07:31N 32°42' E 129°49'0 0.0
2020-Mar-23 05:16N 32°42' E 129°49'0 0.0
2020-Mar-23 04:16N 32°42' E 129°49'  
Track history (hours):
 
Tides and Currents Weather Stations Pressure Air Temp Water Temp Dewpoint Dewpoint Depression Visibility Wind Speed Wind Dir Waves Ship Positions

Costa Atlantica (Italy)

Last reported at 2020-Apr-02 02:01 UTC. Time now 2020-Apr-02 04:04 UTC.
Position N 32°42' E 129°50'.

Length 292 m; draft 8 m.

Type: Ship. MMSI: 247595017.

Date/timePositionNaut miles runAvg speedWind from/ knotsBaromVisibWave heightAir tempDewpointWater temp
2020-Apr-02 02:01N 32°42' E 129°50'0 0.0
2020-Apr-01 22:16N 32°42' E 129°50'0 0.0
2020-Apr-01 20:46N 32°42' E 129°50'0 0.0
2020-Apr-01 18:30N 32°42' E 129°50'0 0.0
2020-Apr-01 17:46N 32°42' E 129°50'0 0.0
2020-Apr-01 17:00N 32°42' E 129°50'0 0.0
2020-Apr-01 16:16N 32°42' E 129°50'0 0.0
2020-Apr-01 10:16N 32°42' E 129°50'0 0.0
2020-Apr-01 07:16N 32°42' E 129°50'73 7.7
2020-Mar-31 21:46N 31°39' E 129°05'1212.2
2020-Mar-31 20:46N 31°29' E 128°59'17 5.5
2020-Mar-31 17:45N 31°12' E 128°54'8 4.0
2020-Mar-31 15:46N 31°05' E 128°56'4610.2
2020-Mar-31 11:16N 31°49' E 129°11'714.2
2020-Mar-31 10:46N 31°56' E 129°12'1413.7
2020-Mar-31 09:46N 32°09' E 129°17'714.1
2020-Mar-31 09:16N 32°15' E 129°20'1313.5
2020-Mar-31 08:17N 32°27' E 129°27'1413.9
2020-Mar-31 07:16N 32°39' E 129°35'11 3.6
2020-Mar-31 04:16N 32°42' E 129°48'0 0.0
2020-Mar-30 21:16N 32°42' E 129°48'0 0.1
2020-Mar-30 20:31N 32°42' E 129°48'0 0.0
2020-Mar-30 16:01N 32°42' E 129°48'0 0.0
2020-Mar-30 13:46N 32°42' E 129°48'0 0.0
2020-Mar-30 11:31N 32°42' E 129°48'0 0.0
2020-Mar-30 10:01N 32°42' E 129°48'0 0.0
2020-Mar-30 08:31N 32°42' E 129°48'0 0.0
2020-Mar-30 07:32N 32°42' E 129°48'0 0.0
2020-Mar-30 05:17N 32°42' E 129°48'0 0.0
2020-Mar-30 01:32N 32°42' E 129°48'0 0.0
2020-Mar-30 01:02N 32°42' E 129°48'0 0.0
2020-Mar-29 22:01N 32°42' E 129°48'0 0.1
2020-Mar-29 21:16N 32°42' E 129°48'0 0.0
2020-Mar-29 18:46N 32°42' E 129°48'0 0.0
2020-Mar-29 17:16N 32°42' E 129°48'0 0.0
2020-Mar-29 14:17N 32°42' E 129°48'0 0.0
2020-Mar-29 12:47N 32°42' E 129°48'0 0.1
2020-Mar-29 12:02N 32°42' E 129°48'0 0.0
2020-Mar-29 11:17N 32°42' E 129°48'0 0.0
2020-Mar-29 08:47N 32°42' E 129°48'0 0.0
2020-Mar-29 02:01N 32°42' E 129°48'0 0.0
2020-Mar-28 23:46N 32°42' E 129°48'0 0.1
2020-Mar-28 23:02N 32°42' E 129°48'0 0.0
2020-Mar-28 20:46N 32°42' E 129°48'0 0.0
2020-Mar-28 19:01N 32°42' E 129°48'0 0.0
2020-Mar-28 15:17N 32°42' E 129°48'0 0.0
2020-Mar-28 12:02N 32°42' E 129°48'0 0.1
2020-Mar-28 11:17N 32°42' E 129°48'0 0.0
2020-Mar-28 08:16N 32°42' E 129°48'0 0.0
2020-Mar-28 06:01N 32°42' E 129°48'0 0.0
2020-Mar-28 02:16N 32°42' E 129°48'0 0.1
2020-Mar-28 01:31N 32°42' E 129°48'0 0.1
2020-Mar-28 00:46N 32°42' E 129°48'0 0.0
2020-Mar-27 16:46N 32°42' E 129°48'0 0.0
2020-Mar-27 16:01N 32°42' E 129°48'0 0.0
2020-Mar-27 14:31N 32°42' E 129°48'0 0.0
2020-Mar-27 13:02N 32°42' E 129°48'0 0.1
2020-Mar-27 12:16N 32°42' E 129°48'0 0.1
2020-Mar-27 11:32N 32°42' E 129°48'0 0.0
2020-Mar-27 09:47N 32°42' E 129°48'4 1.0
2020-Mar-27 05:32N 32°44' E 129°52'0 0.0
2020-Mar-27 03:16N 32°44' E 129°52'0 0.0
2020-Mar-26 20:46N 32°44' E 129°52'0 0.0
2020-Mar-26 17:46N 32°44' E 129°52'0 0.0
2020-Mar-26 17:01N 32°44' E 129°52'0 0.0
2020-Mar-26 14:31N 32°44' E 129°52'0 0.0
2020-Mar-26 13:01N 32°44' E 129°52'0 0.0
2020-Mar-26 10:47N 32°44' E 129°52'0 0.0
2020-Mar-26 09:16N 32°44' E 129°52'0 0.0
2020-Mar-26 07:47N 32°44' E 129°52'0 0.0
2020-Mar-26 07:02N 32°44' E 129°52'0 0.0
2020-Mar-26 06:16N 32°44' E 129°52'0 0.0
2020-Mar-26 05:32N 32°44' E 129°52'0 0.0
2020-Mar-26 04:02N 32°44' E 129°52'0 0.0
2020-Mar-26 03:02N 32°44' E 129°52'7 1.7
2020-Mar-25 22:46N 32°44' E 129°43'3613.2
2020-Mar-25 20:01N 32°14' E 129°18'8312.0
2020-Mar-25 13:03N 30°59' E 128°35'51 9.8
2020-Mar-25 07:48N 31°40' E 129°12'3413.6
2020-Mar-25 05:18N 32°13' E 129°19'39 9.7
2020-Mar-25 01:18N 32°42' E 129°49'0 0.0
2020-Mar-25 00:33N 32°42' E 129°49'0 0.0
2020-Mar-24 19:17N 32°42' E 129°49'0 0.1
2020-Mar-24 18:32N 32°42' E 129°49'0 0.0
2020-Mar-24 17:02N 32°42' E 129°49'0 0.0
2020-Mar-24 13:17N 32°42' E 129°49'0 0.0
2020-Mar-24 12:32N 32°42' E 129°49'0 0.0
2020-Mar-24 07:46N 32°42' E 129°49'0 0.0
2020-Mar-24 07:02N 32°42' E 129°49'0 0.0
2020-Mar-24 05:16N 32°42' E 129°49'0 0.0
2020-Mar-23 20:46N 32°42' E 129°49'0 0.0
2020-Mar-23 19:16N 32°42' E 129°49'0 0.0
2020-Mar-23 13:16N 32°42' E 129°49'0 0.0
2020-Mar-23 12:31N 32°42' E 129°49'0 0.0
2020-Mar-23 11:01N 32°42' E 129°49'0 0.0
2020-Mar-23 09:01N 32°42' E 129°49'0 0.0
2020-Mar-23 07:31N 32°42' E 129°49'0 0.0
2020-Mar-23 05:16N 32°42' E 129°49'0 0.0
2020-Mar-23 04:16N 32°42' E 129°49'  

Dump ship's entire track history